createdAt,value
2019-01-14T00:01:04.624Z,4.60
2019-01-14T00:03:31.423Z,6.23
2019-01-14T00:05:58.230Z,3.83
2019-01-14T00:08:25.336Z,7.20
2019-01-14T00:10:54.379Z,8.93
2019-01-14T00:13:27.474Z,6.63
2019-01-14T00:15:57.712Z,8.30
2019-01-14T00:18:24.725Z,6.40
2019-01-14T00:20:52.082Z,7.60
2019-01-14T00:23:19.419Z,4.10
2019-01-14T00:25:46.459Z,4.00
2019-01-14T00:28:16.331Z,5.00
2019-01-14T00:30:45.774Z,6.23
2019-01-14T00:33:13.167Z,5.80
2019-01-14T00:35:40.321Z,5.27
2019-01-14T00:38:07.211Z,4.80
2019-01-14T00:40:34.092Z,6.67
2019-01-14T00:43:01.802Z,7.40
2019-01-14T00:45:29.451Z,6.67
2019-01-14T00:47:56.403Z,2.40
2019-01-14T00:50:23.348Z,3.00
2019-01-14T00:52:50.316Z,2.37
2019-01-14T00:55:18.500Z,2.53
2019-01-14T00:57:45.975Z,2.40
2019-01-14T01:00:24.709Z,3.80
2019-01-14T01:02:52.053Z,4.13
2019-01-14T01:05:19.455Z,3.37
2019-01-14T01:07:49.316Z,3.10
2019-01-14T01:10:16.595Z,3.43
2019-01-14T01:12:43.843Z,3.33
2019-01-14T01:15:11.494Z,3.40
2019-01-14T01:17:39.416Z,3.13
2019-01-14T01:20:07.012Z,3.20
2019-01-14T01:22:33.865Z,2.50
2019-01-14T01:25:00.735Z,3.03
2019-01-14T01:27:29.552Z,3.30
2019-01-14T01:29:56.675Z,3.20
2019-01-14T01:32:25.737Z,3.30
2019-01-14T01:34:52.887Z,3.30
2019-01-14T01:37:20.456Z,2.90
2019-01-14T01:39:47.450Z,2.97
2019-01-14T01:42:14.219Z,3.27
2019-01-14T01:44:41.040Z,3.33
2019-01-14T01:47:07.853Z,3.50
2019-01-14T01:49:34.657Z,3.33
2019-01-14T01:52:01.443Z,3.30
2019-01-14T01:54:29.249Z,2.03
2019-01-14T01:56:56.216Z,2.60
2019-01-14T01:59:23.259Z,4.73
2019-01-14T02:01:50.329Z,2.87
2019-01-14T02:04:17.569Z,1.90
2019-01-14T02:06:44.535Z,3.60
2019-01-14T02:09:11.553Z,2.63
2019-01-14T02:11:38.327Z,3.07
2019-01-14T02:14:05.528Z,2.70
2019-01-14T02:16:32.737Z,4.50
2019-01-14T02:18:59.870Z,2.83
2019-01-14T02:21:26.704Z,3.03
2019-01-14T02:23:53.484Z,2.77
2019-01-14T02:26:20.293Z,3.70
2019-01-14T02:28:47.212Z,4.80
2019-01-14T02:31:14.422Z,3.50
2019-01-14T02:33:41.379Z,2.93
2019-01-14T02:36:08.855Z,3.00
2019-01-14T02:38:35.631Z,3.83
2019-01-14T02:41:02.563Z,3.53
2019-01-14T02:43:29.382Z,3.20
2019-01-14T02:45:56.155Z,3.83
2019-01-14T02:48:22.927Z,3.00
2019-01-14T02:50:49.748Z,3.30
2019-01-14T02:53:16.519Z,3.27
2019-01-14T02:55:43.296Z,2.63
2019-01-14T02:58:10.184Z,3.03
2019-01-14T03:00:37.033Z,2.50
2019-01-14T03:03:04.132Z,2.70
2019-01-14T03:05:30.927Z,3.10
2019-01-14T03:07:57.701Z,2.70
2019-01-14T03:10:24.463Z,4.10
2019-01-14T03:12:51.513Z,3.60
2019-01-14T03:15:18.807Z,2.73
2019-01-14T03:17:45.682Z,2.93
2019-01-14T03:20:12.726Z,3.53
2019-01-14T03:22:39.531Z,3.20
2019-01-14T03:25:06.697Z,3.40
2019-01-14T03:27:33.510Z,3.10
2019-01-14T03:30:00.309Z,3.10
2019-01-14T03:32:27.081Z,2.40
2019-01-14T03:34:53.885Z,2.77
2019-01-14T03:37:20.659Z,2.33
2019-01-14T03:39:47.427Z,3.20
2019-01-14T03:42:14.289Z,2.40
2019-01-14T03:44:41.054Z,3.40
2019-01-14T03:47:07.875Z,2.27
2019-01-14T03:49:34.820Z,2.17
2019-01-14T03:52:01.858Z,2.93
2019-01-14T03:54:29.127Z,3.00
2019-01-14T03:56:55.964Z,2.10
2019-01-14T03:59:22.797Z,2.60
2019-01-14T04:01:49.820Z,1.93
2019-01-14T04:04:16.696Z,3.20
2019-01-14T04:06:43.588Z,2.50
2019-01-14T04:09:10.457Z,3.80
2019-01-14T04:11:37.446Z,2.87
2019-01-14T04:14:04.219Z,3.00
2019-01-14T04:16:31.105Z,3.10
2019-01-14T04:18:58.000Z,2.40
2019-01-14T04:21:24.837Z,2.40
2019-01-14T04:23:51.628Z,2.67
2019-01-14T04:26:18.550Z,2.77
2019-01-14T04:28:45.357Z,1.80
2019-01-14T04:31:12.349Z,3.40
2019-01-14T04:33:39.163Z,3.70
2019-01-14T04:36:06.038Z,2.87
2019-01-14T04:38:32.932Z,2.10
2019-01-14T04:41:00.062Z,2.17
2019-01-14T04:43:26.855Z,2.43
2019-01-14T04:45:53.660Z,2.63
2019-01-14T04:48:20.479Z,2.30
2019-01-14T04:50:47.275Z,2.00
2019-01-14T04:53:14.081Z,2.43
2019-01-14T04:55:40.887Z,3.33
2019-01-14T04:58:07.747Z,2.20
2019-01-14T05:00:34.661Z,2.83
2019-01-14T05:03:01.543Z,2.30
2019-01-14T05:05:28.645Z,2.23
2019-01-14T05:07:55.628Z,1.60
2019-01-14T05:10:22.572Z,2.20
2019-01-14T05:12:49.483Z,2.60
2019-01-14T05:15:16.284Z,2.13
2019-01-14T05:17:43.288Z,1.93
2019-01-14T05:20:12.103Z,2.00
2019-01-14T05:22:39.129Z,2.30
2019-01-14T05:25:06.609Z,1.83
2019-01-14T05:27:33.421Z,1.90
2019-01-14T05:30:00.223Z,2.30
2019-01-14T05:32:27.037Z,2.00
2019-01-14T05:34:54.018Z,2.87
2019-01-14T05:37:20.792Z,3.07
2019-01-14T05:39:47.750Z,2.20
2019-01-14T05:42:14.544Z,2.53
2019-01-14T05:44:41.357Z,2.93
2019-01-14T05:47:08.196Z,2.80
2019-01-14T05:49:35.007Z,2.17
2019-01-14T05:52:01.795Z,2.90
2019-01-14T05:54:28.641Z,2.80
2019-01-14T05:56:55.460Z,1.80
2019-01-14T05:59:22.263Z,2.17
2019-01-14T06:01:49.069Z,1.93
2019-01-14T06:04:15.917Z,2.00
2019-01-14T06:06:42.907Z,1.73
2019-01-14T06:09:09.980Z,1.60
2019-01-14T06:11:36.845Z,1.90
2019-01-14T06:14:03.642Z,2.20
2019-01-14T06:16:30.529Z,2.13
2019-01-14T06:18:57.332Z,2.10
2019-01-14T06:21:24.136Z,2.87
2019-01-14T06:23:50.948Z,2.30
2019-01-14T06:26:17.723Z,1.70
2019-01-14T06:28:44.508Z,2.43
2019-01-14T06:31:11.360Z,2.07
2019-01-14T06:33:38.164Z,2.50
2019-01-14T06:36:05.389Z,2.00
2019-01-14T06:38:32.542Z,2.30
2019-01-14T06:40:59.303Z,1.87
2019-01-14T06:43:26.110Z,2.20
2019-01-14T06:45:52.917Z,2.20
2019-01-14T06:48:19.721Z,1.53
2019-01-14T06:50:46.482Z,2.77
2019-01-14T06:53:13.481Z,1.73
2019-01-14T06:55:40.500Z,1.83
2019-01-14T06:58:07.428Z,1.53
2019-01-14T07:00:34.236Z,2.20
2019-01-14T07:03:01.359Z,1.90
2019-01-14T07:05:28.165Z,2.13
2019-01-14T07:07:59.493Z,2.03
2019-01-14T07:10:24.901Z,2.40
2019-01-14T07:12:51.868Z,1.43
2019-01-14T07:15:18.949Z,2.17
2019-01-14T07:17:45.822Z,1.67
2019-01-14T07:20:12.957Z,2.90
2019-01-14T07:22:40.036Z,1.83
2019-01-14T07:25:06.982Z,1.77
2019-01-14T07:27:33.753Z,2.10
2019-01-14T07:30:00.600Z,1.50
2019-01-14T07:32:27.469Z,1.93
2019-01-14T07:34:54.255Z,2.20
2019-01-14T07:37:21.119Z,1.33
2019-01-14T07:39:47.900Z,1.53
2019-01-14T07:42:14.685Z,1.27
2019-01-14T07:44:41.483Z,1.83
2019-01-14T07:47:08.288Z,2.00
2019-01-14T07:49:35.118Z,1.60
2019-01-14T07:52:01.939Z,1.97
2019-01-14T07:54:28.837Z,2.50
2019-01-14T07:56:55.746Z,1.40
2019-01-14T07:59:22.781Z,2.03
2019-01-14T08:01:49.586Z,2.50
2019-01-14T08:04:16.483Z,1.80
2019-01-14T08:06:43.273Z,1.40
2019-01-14T08:09:10.043Z,1.60
2019-01-14T08:11:36.855Z,1.77
2019-01-14T08:14:03.923Z,1.80
2019-01-14T08:16:30.695Z,1.80
2019-01-14T08:18:57.500Z,1.93
2019-01-14T08:21:24.323Z,2.30
2019-01-14T08:23:51.121Z,2.30
2019-01-14T08:26:17.894Z,1.60
2019-01-14T08:28:44.683Z,1.57
2019-01-14T08:31:11.480Z,2.13
2019-01-14T08:33:38.611Z,2.37
2019-01-14T08:36:05.452Z,2.30
2019-01-14T08:38:32.221Z,2.37
2019-01-14T08:40:59.433Z,1.97
2019-01-14T08:43:28.112Z,2.53
2019-01-14T08:45:55.516Z,3.10
2019-01-14T08:48:22.326Z,2.47
2019-01-14T08:50:49.132Z,3.27
2019-01-14T08:53:15.921Z,2.87
2019-01-14T08:55:42.761Z,1.80
2019-01-14T08:58:09.566Z,2.20
2019-01-14T09:00:36.480Z,1.87
2019-01-14T09:03:03.252Z,1.40
2019-01-14T09:05:30.280Z,1.30
2019-01-14T09:07:57.055Z,1.43
2019-01-14T09:10:24.135Z,1.40
2019-01-14T09:12:50.923Z,1.70
2019-01-14T09:15:17.703Z,1.20
2019-01-14T09:17:44.689Z,1.23
2019-01-14T09:20:15.526Z,1.30
2019-01-14T09:22:42.428Z,1.40
2019-01-14T09:25:09.224Z,1.40
2019-01-14T09:27:36.127Z,1.50
2019-01-14T09:30:04.480Z,1.80
2019-01-14T09:32:31.531Z,2.10
2019-01-14T09:34:58.688Z,2.17
2019-01-14T09:37:25.463Z,1.60
2019-01-14T09:39:52.240Z,1.33
2019-01-14T09:42:19.109Z,2.17
2019-01-14T09:44:46.619Z,1.57
2019-01-14T09:47:13.461Z,1.63
2019-01-14T09:49:40.481Z,2.03
2019-01-14T09:52:07.287Z,1.40
2019-01-14T09:54:34.096Z,1.07
2019-01-14T09:57:01.030Z,1.73
2019-01-14T09:59:27.830Z,1.50
2019-01-14T10:01:54.635Z,1.00
2019-01-14T10:04:21.467Z,1.57
2019-01-14T10:06:48.268Z,1.63
2019-01-14T10:09:15.060Z,2.90
2019-01-14T10:11:41.980Z,2.00
2019-01-14T10:14:08.771Z,1.57
2019-01-14T10:16:35.841Z,1.77
2019-01-14T10:19:02.757Z,1.90
2019-01-14T10:21:29.588Z,1.97
2019-01-14T10:23:56.347Z,1.43
2019-01-14T10:26:23.235Z,1.50
2019-01-14T10:28:50.079Z,2.03
2019-01-14T10:31:19.922Z,1.40
2019-01-14T10:33:45.881Z,1.90
2019-01-14T10:36:12.764Z,2.00
2019-01-14T10:38:39.736Z,0.90
2019-01-14T10:41:06.733Z,1.70
2019-01-14T10:43:34.085Z,1.67
2019-01-14T10:46:00.873Z,1.90
2019-01-14T10:48:27.914Z,1.40
2019-01-14T10:50:54.820Z,1.67
2019-01-14T10:53:21.647Z,1.93
2019-01-14T10:55:48.483Z,2.60
2019-01-14T10:58:15.385Z,1.90
2019-01-14T11:00:42.203Z,2.00
2019-01-14T11:03:09.124Z,1.90
2019-01-14T11:05:35.953Z,1.47
2019-01-14T11:08:02.857Z,1.57
2019-01-14T11:10:29.702Z,1.23
2019-01-14T11:12:56.620Z,1.57
2019-01-14T11:15:23.523Z,1.67
2019-01-14T11:17:50.564Z,1.60
2019-01-14T11:20:21.789Z,1.40
2019-01-14T11:22:48.554Z,1.77
2019-01-14T11:25:16.435Z,1.83
2019-01-14T11:27:44.368Z,1.90
2019-01-14T11:30:14.161Z,1.10
2019-01-14T11:32:41.229Z,1.57
2019-01-14T11:35:08.140Z,1.70
2019-01-14T11:37:35.719Z,1.20
2019-01-14T11:40:07.303Z,1.53
2019-01-14T11:42:34.423Z,1.50
2019-01-14T11:45:01.248Z,1.23
2019-01-14T11:47:28.044Z,2.00
2019-01-14T11:49:55.739Z,1.40
2019-01-14T11:52:22.601Z,0.77
2019-01-14T11:54:49.383Z,1.40
2019-01-14T11:57:16.259Z,1.50
2019-01-14T11:59:43.055Z,1.20
2019-01-14T12:02:10.265Z,1.27
2019-01-14T12:04:38.280Z,1.50
2019-01-14T12:07:06.760Z,1.30
2019-01-14T12:09:35.499Z,1.30
2019-01-14T12:12:02.547Z,1.17
2019-01-14T12:14:29.556Z,1.33
2019-01-14T12:16:56.426Z,1.10
2019-01-14T12:19:23.269Z,1.03
2019-01-14T12:21:50.074Z,1.10
2019-01-14T12:24:17.107Z,1.13
2019-01-14T12:26:44.781Z,1.40
2019-01-14T12:29:13.406Z,1.30
2019-01-14T12:31:41.990Z,1.20
2019-01-14T12:34:09.335Z,1.30
2019-01-14T12:36:36.457Z,0.97
2019-01-14T12:39:06.295Z,1.10
2019-01-14T12:41:33.139Z,1.17
2019-01-14T12:44:00.049Z,1.37
2019-01-14T12:46:26.913Z,0.97
2019-01-14T12:48:53.730Z,0.90
2019-01-14T12:51:20.538Z,0.90
2019-01-14T12:53:47.781Z,0.70
2019-01-14T12:56:14.717Z,0.70
2019-01-14T12:58:42.491Z,1.20
2019-01-14T13:01:10.231Z,1.10
2019-01-14T13:03:38.046Z,0.70
2019-01-14T13:06:05.613Z,0.87
2019-01-14T13:08:32.528Z,1.20
2019-01-14T13:10:59.579Z,1.17
2019-01-14T13:13:26.669Z,1.10
2019-01-14T13:15:53.554Z,1.30
2019-01-14T13:18:20.363Z,1.77
2019-01-14T13:20:47.172Z,1.40
2019-01-14T13:23:13.986Z,1.90
2019-01-14T13:25:40.838Z,1.83
2019-01-14T13:28:07.705Z,1.33
2019-01-14T13:30:34.735Z,2.40
2019-01-14T13:33:01.503Z,1.30
2019-01-14T13:35:28.367Z,1.50
2019-01-14T13:37:55.371Z,1.67
2019-01-14T13:40:22.235Z,1.50
2019-01-14T13:42:49.198Z,1.00
2019-01-14T13:45:16.686Z,0.93
2019-01-14T13:47:43.671Z,1.10
2019-01-14T13:50:11.366Z,1.30
2019-01-14T13:52:38.169Z,1.70
2019-01-14T13:55:05.295Z,2.03
2019-01-14T13:57:32.302Z,1.70
2019-01-14T13:59:59.213Z,1.53
2019-01-14T14:02:26.080Z,2.20
2019-01-14T14:04:52.880Z,1.70
2019-01-14T14:07:19.763Z,1.60
2019-01-14T14:09:47.594Z,1.50
2019-01-14T14:12:14.478Z,1.50
2019-01-14T14:14:41.341Z,1.13
2019-01-14T14:17:08.123Z,1.00
2019-01-14T14:19:35.008Z,1.30
2019-01-14T14:22:01.835Z,1.17
2019-01-14T14:24:28.684Z,0.97
2019-01-14T14:26:55.534Z,1.00
2019-01-14T14:29:22.380Z,1.37
2019-01-14T14:31:49.236Z,2.00
2019-01-14T14:34:16.015Z,1.10
2019-01-14T14:36:42.898Z,1.47
2019-01-14T14:39:09.744Z,1.27
2019-01-14T14:41:36.573Z,1.40
2019-01-14T14:44:03.430Z,1.30
2019-01-14T14:46:30.235Z,1.30
2019-01-14T14:48:57.085Z,1.43
2019-01-14T14:51:23.907Z,1.70
2019-01-14T14:53:50.826Z,1.67
2019-01-14T14:56:17.652Z,1.50
2019-01-14T14:58:44.656Z,1.20
2019-01-14T15:01:11.811Z,1.47
2019-01-14T15:03:38.881Z,1.70
2019-01-14T15:06:05.721Z,1.80
2019-01-14T15:08:32.545Z,1.80
2019-01-14T15:10:59.379Z,1.80
2019-01-14T15:13:26.338Z,1.10
2019-01-14T15:15:53.275Z,1.70
2019-01-14T15:18:20.186Z,1.73
2019-01-14T15:20:47.384Z,1.33
2019-01-14T15:23:15.539Z,1.30
2019-01-14T15:25:42.383Z,2.27
2019-01-14T15:28:09.394Z,1.33
2019-01-14T15:30:36.278Z,1.77
2019-01-14T15:33:03.423Z,2.67
2019-01-14T15:35:30.416Z,2.40
2019-01-14T15:37:57.507Z,1.40
2019-01-14T15:40:24.360Z,2.07
2019-01-14T15:42:51.282Z,1.90
2019-01-14T15:45:18.688Z,1.00
2019-01-14T15:47:45.547Z,1.60
2019-01-14T15:50:12.581Z,1.60
2019-01-14T15:52:39.347Z,1.53
2019-01-14T15:55:07.311Z,1.67
2019-01-14T15:57:34.145Z,0.97
2019-01-14T16:00:00.957Z,1.23
2019-01-14T16:02:28.048Z,1.60
2019-01-14T16:04:54.976Z,1.30
2019-01-14T16:07:21.825Z,1.40
2019-01-14T16:09:48.668Z,1.20
2019-01-14T16:12:15.507Z,1.80
2019-01-14T16:14:42.337Z,2.60
2019-01-14T16:17:09.258Z,1.23
2019-01-14T16:19:36.164Z,1.40
2019-01-14T16:22:03.214Z,1.60
2019-01-14T16:24:30.363Z,1.50
2019-01-14T16:26:57.219Z,1.20
2019-01-14T16:29:24.011Z,2.40
2019-01-14T16:31:50.868Z,1.60
2019-01-14T16:34:17.744Z,1.40
2019-01-14T16:36:44.592Z,2.17
2019-01-14T16:39:11.482Z,1.40
2019-01-14T16:41:38.697Z,1.90
2019-01-14T16:44:05.604Z,2.13
2019-01-14T16:46:32.409Z,3.37
2019-01-14T16:48:59.283Z,1.60
2019-01-14T16:51:26.136Z,1.70
2019-01-14T16:53:52.955Z,1.30
2019-01-14T16:56:19.831Z,1.20
2019-01-14T16:58:46.648Z,1.80
2019-01-14T17:01:13.500Z,1.40
2019-01-14T17:03:40.364Z,1.47
2019-01-14T17:06:07.332Z,1.40
2019-01-14T17:08:34.123Z,1.50
2019-01-14T17:11:00.977Z,1.00
2019-01-14T17:13:27.832Z,1.50
2019-01-14T17:15:54.631Z,1.80
2019-01-14T17:18:21.516Z,2.00
2019-01-14T17:20:48.541Z,2.50
2019-01-14T17:23:15.367Z,1.50
2019-01-14T17:25:42.256Z,1.90
2019-01-14T17:28:09.052Z,2.00
2019-01-14T17:30:36.161Z,2.37
2019-01-14T17:33:03.080Z,1.70
2019-01-14T17:35:29.888Z,3.00
2019-01-14T17:37:56.710Z,2.87
2019-01-14T17:40:23.503Z,2.27
2019-01-14T17:42:50.533Z,2.03
2019-01-14T17:45:17.368Z,1.30
2019-01-14T17:47:44.382Z,3.30
2019-01-14T17:50:12.257Z,1.33
2019-01-14T17:52:39.156Z,2.33
2019-01-14T17:55:06.161Z,1.50
2019-01-14T17:57:32.938Z,1.57
2019-01-14T17:59:59.712Z,1.93
2019-01-14T18:02:26.512Z,1.63
2019-01-14T18:04:53.372Z,1.80
2019-01-14T18:07:20.136Z,1.23
2019-01-14T18:09:47.149Z,1.40
2019-01-14T18:12:14.038Z,1.80
2019-01-14T18:14:40.845Z,2.13
2019-01-14T18:17:07.673Z,1.93
2019-01-14T18:19:34.444Z,1.70
2019-01-14T18:22:01.292Z,1.53
2019-01-14T18:24:28.133Z,1.83
2019-01-14T18:26:54.951Z,1.70
2019-01-14T18:29:22.164Z,2.63
2019-01-14T18:31:49.615Z,1.67
2019-01-14T18:34:16.404Z,1.60
2019-01-14T18:36:43.168Z,2.60
2019-01-14T18:39:10.181Z,2.43
2019-01-14T18:41:36.982Z,2.77
2019-01-14T18:44:03.791Z,4.13
2019-01-14T18:46:30.651Z,2.87
2019-01-14T18:48:57.476Z,3.00
2019-01-14T18:51:24.269Z,3.20
2019-01-14T18:53:51.092Z,2.87
2019-01-14T18:56:17.871Z,2.37
2019-01-14T18:58:44.736Z,2.67
2019-01-14T19:01:11.782Z,2.17
2019-01-14T19:03:38.600Z,1.90
2019-01-14T19:06:05.479Z,4.23
2019-01-14T19:08:32.434Z,3.27
2019-01-14T19:10:59.220Z,3.70
2019-01-14T19:13:26.148Z,3.60
2019-01-14T19:15:53.053Z,2.90
2019-01-14T19:18:19.854Z,2.20
2019-01-14T19:20:46.662Z,2.70
2019-01-14T19:23:13.503Z,2.03
2019-01-14T19:25:40.671Z,2.57
2019-01-14T19:28:07.504Z,2.20
2019-01-14T19:30:34.655Z,2.53
2019-01-14T19:33:01.420Z,3.00
2019-01-14T19:35:28.244Z,1.80
2019-01-14T19:37:55.327Z,1.50
2019-01-14T19:40:22.148Z,2.27
2019-01-14T19:42:49.240Z,2.00
2019-01-14T19:45:18.010Z,2.93
2019-01-14T19:47:44.925Z,2.23
2019-01-14T19:50:13.268Z,2.63
2019-01-14T19:52:40.131Z,2.37
2019-01-14T19:55:07.100Z,2.10
2019-01-14T19:57:33.951Z,2.73
2019-01-14T20:00:00.927Z,2.90
2019-01-14T20:02:29.897Z,2.07
2019-01-14T20:04:57.020Z,2.37
2019-01-14T20:07:23.856Z,1.87
2019-01-14T20:09:50.652Z,2.40
2019-01-14T20:12:18.480Z,2.30
2019-01-14T20:14:45.694Z,2.50
2019-01-14T20:17:12.598Z,2.10
2019-01-14T20:19:39.372Z,3.03
2019-01-14T20:22:06.211Z,2.90
2019-01-14T20:24:35.107Z,2.90
2019-01-14T20:27:01.899Z,3.03
2019-01-14T20:29:28.708Z,2.73
2019-01-14T20:31:55.733Z,2.00
2019-01-14T20:34:22.523Z,2.83
2019-01-14T20:36:50.066Z,2.47
2019-01-14T20:39:16.943Z,3.03
2019-01-14T20:41:44.041Z,2.77
2019-01-14T20:44:10.880Z,3.23
2019-01-14T20:46:37.716Z,3.40
2019-01-14T20:49:04.499Z,2.93
2019-01-14T20:51:31.305Z,2.93
2019-01-14T20:54:00.930Z,2.57
2019-01-14T20:56:27.884Z,2.87
2019-01-14T20:58:54.820Z,3.27
2019-01-14T21:01:22.389Z,4.47
2019-01-14T21:03:51.270Z,3.37
2019-01-14T21:06:18.260Z,3.13
2019-01-14T21:08:45.137Z,3.40
2019-01-14T21:11:11.951Z,3.50
2019-01-14T21:13:38.800Z,4.00
2019-01-14T21:16:05.868Z,2.77
2019-01-14T21:18:32.732Z,3.83
2019-01-14T21:20:59.543Z,3.13
2019-01-14T21:23:26.366Z,3.00
2019-01-14T21:25:53.540Z,2.70
2019-01-14T21:28:20.422Z,2.93
2019-01-14T21:30:47.873Z,2.03
2019-01-14T21:33:14.893Z,2.50
2019-01-14T21:35:41.882Z,3.20
2019-01-14T21:38:08.783Z,2.80
2019-01-14T21:40:35.753Z,3.40
2019-01-14T21:43:02.624Z,2.60
2019-01-14T21:45:29.634Z,2.13
2019-01-14T21:47:56.489Z,2.50
2019-01-14T21:50:23.406Z,2.30
2019-01-14T21:52:50.436Z,3.80
2019-01-14T21:55:19.301Z,3.27
2019-01-14T21:57:46.240Z,2.63
2019-01-14T22:00:14.394Z,3.10
2019-01-14T22:02:41.391Z,2.40
2019-01-14T22:05:09.284Z,3.50
2019-01-14T22:07:36.223Z,2.83
2019-01-14T22:10:03.949Z,2.70
2019-01-14T22:12:30.864Z,3.10
2019-01-14T22:14:57.937Z,2.50
2019-01-14T22:17:24.917Z,2.80
2019-01-14T22:19:52.523Z,3.13
2019-01-14T22:22:19.506Z,2.60
2019-01-14T22:24:47.341Z,2.43
2019-01-14T22:27:15.214Z,2.97
2019-01-14T22:29:42.713Z,2.80
2019-01-14T22:32:09.946Z,2.67
2019-01-14T22:34:37.227Z,2.97
2019-01-14T22:37:04.517Z,3.17
2019-01-14T22:39:32.240Z,3.10
2019-01-14T22:42:00.269Z,3.10
2019-01-14T22:44:27.201Z,3.50
2019-01-14T22:46:54.221Z,3.27
2019-01-14T22:49:21.902Z,2.90
2019-01-14T22:51:49.463Z,4.30
2019-01-14T22:54:16.971Z,3.07
2019-01-14T22:56:43.997Z,2.80
2019-01-14T22:59:11.733Z,3.50
2019-01-14T23:01:45.075Z,2.10
2019-01-14T23:04:12.181Z,3.47
2019-01-14T23:06:39.242Z,3.47
2019-01-14T23:09:06.938Z,4.40
2019-01-14T23:11:33.769Z,3.97
2019-01-14T23:14:00.678Z,3.80
2019-01-14T23:16:28.041Z,2.43
2019-01-14T23:18:55.470Z,3.80
2019-01-14T23:21:22.424Z,4.07
2019-01-14T23:23:49.343Z,3.47
2019-01-14T23:26:16.248Z,3.47
2019-01-14T23:28:43.136Z,2.90
2019-01-14T23:31:09.948Z,2.27
2019-01-14T23:33:37.077Z,4.03
2019-01-14T23:36:04.075Z,3.40
2019-01-14T23:38:30.900Z,2.43
2019-01-14T23:40:57.836Z,2.13
2019-01-14T23:43:24.737Z,2.80
2019-01-14T23:45:51.590Z,3.40
2019-01-14T23:48:19.442Z,2.67
2019-01-14T23:50:50.348Z,2.87
2019-01-14T23:53:17.419Z,3.33
2019-01-14T23:55:44.664Z,3.80
2019-01-14T23:58:11.444Z,2.73
